GCXOGCGM

Guest
Details From GCXO - Tenerife Norte - Los Rodeos
To GCGM - La Gomera
Flight Number -
Tags generated
Created
Modified
Stats Distance 62 nm / 115 km
Max Altitude 5,900 ft / 1,798 m
Waypoints 3
Social Downloads 2
Likes 0
Share VATSIM

Download

Looking for another format? Having issues loading an existing format? Contact us
Advertisement - Login to hide

Notes

Basic altitude profile: - Ascent Rate: 2500ft/min - Ascent Speed: 250kts - Cruise Altitude: 1000ft - Cruise Speed: 420kts - Descent Rate: 1500ft/min - Descent Speed: 250kts Options: - Use NATs: yes - Use PACOTS: yes - Use low airways: yes - Use high airways: no

Route

GCXO TFS GCGM

ID Type Via Altitude (ft/m) Position (lat/lon) Dist (leg/tot) Name
O GCXO APT - 0 / 0 28.48266 / -16.34154 - / 0 nm Tenerife Norte - Los Rodeos
TFS VOR - 5,900 / 1,798 28.00245 / -16.68793 34 / 34 nm TENERIFE SUR VOR-DME
O GCGM APT - 0 / 0 28.02963 / -17.21460 27 / 62 nm La Gomera

Altitude Profile

Advertisement - Login to hide

GCXO

Details ICAO GCXO (TFN)
Name Tenerife Norte - Los Rodeos
Region Canary Islands
Timezone Atlantic/Canary (UTC+1.0)
Stats Elevation 2,076 ft / 633 m (AMSL)
Location 28.482700° -16.341500°
Runways 1
Magnetic Variation 4.903° W

METAR

GCXO 192330Z AUTO 32006KT 300V010 9999 -RA SCT008/// BKN025/// OVC050/// 16/15 Q1017

Decode

TAF

TAF GCXO 192000Z 1921/2021 33010KT 9999 BKN016 TX19/2014Z TN14/2005Z TEMPO 1921/2001 4000 RA BKN010 PROB30 TEMPO 1921/2008 3000 DZ BCFG BKN005 PROB30 TEMPO 2011/2019 12005KT

Decode

Departure Runways

ID Width Length Bearing (true/mag) Surface Threshold Overrun Markings Lighting
12 148 ft / 45 m 11,165 ft / 3,403 m 110.67° / 115.58° ASPHALT 0 ft / 0 m 197 ft / 60 m VISUAL CENTERLINE EDGE THRESHOLD SALS REIL-OMNI
30 148 ft / 45 m 11,165 ft / 3,403 m 290.69° / 295.59° ASPHALT 453 ft / 138 m 197 ft / 60 m VISUAL CENTERLINE EDGE THRESHOLD SALS REIL-OMNI

GCGM

Details ICAO GCGM (GMZ)
Name La Gomera
Region Canary Islands
Timezone Atlantic/Canary (UTC+1.0)
Stats Elevation 714 ft / 218 m (AMSL)
Location 28.029600° -17.214600°
Runways 1
Magnetic Variation 5.259° W

METAR

GCGM 192330Z AUTO 03005KT 320V100 9999 SCT060 BKN075 21/13 Q1016 RMK R09/VRB03KT ARP/04004KT 330V090

Decode

TAF

TAF AMD GCGM 192220Z 1922/2021 02012KT 9999 SCT040 TX24/2014Z TN19/2005Z TEMPO 1922/2008 VRB05KT BECMG 2008/2010 20005KT PROB30 TEMPO 1922/1923 RA

Decode

Destination Runways

ID Width Length Bearing (true/mag) Surface Threshold Overrun Markings Lighting
09 98 ft / 30 m 4,926 ft / 1,501 m 81.17° / 86.43° ASPHALT 0 ft / 0 m 0 ft / 0 m PREC-APP EDGE THRESHOLD REIL-OMNI
27 98 ft / 30 m 4,926 ft / 1,501 m 261.18° / 266.44° ASPHALT 0 ft / 0 m 0 ft / 0 m PREC-APP EDGE THRESHOLD REIL-OMNI

Popular Alternatives